Time;durP1;ratioP1;P1;durP2;ratioP2;P2;SDS_P1;SDS_P2;PMS_P1;PMS_P2;Temp;Humidity;BMP_temperature;BMP_pressure;BME280_temperature;BME280_humidity;BME280_pressure;Samples;Min_cycle;Max_cycle;Signal;HPM_P1;HPM_P2
2021/05/19 00:01:20;;;;;;;;;;;20.60;52.50;;;;;;5049077;28;19928;-71
2021/05/19 00:03:46;;;;;;;;;;;20.60;52.60;;;;;;5039694;28;19929;-66
2021/05/19 00:06:12;;;;;;;;;;;20.60;52.50;;;;;;5047336;28;19936;-68
2021/05/19 00:08:39;;;;;;;;;;;20.60;53.10;;;;;;5049326;28;20340;-69
2021/05/19 00:11:05;;;;;;;;;;;20.60;52.60;;;;;;5029353;28;20336;-68
2021/05/19 00:13:33;;;;;;;;;;;20.60;52.50;;;;;;5016086;28;20475;-67
2021/05/19 00:15:59;;;;;;;;;;;20.60;52.50;;;;;;5034947;28;20058;-70
2021/05/19 00:18:25;;;;;;;;;;;20.60;52.50;;;;;;5051043;28;19940;-67
2021/05/19 00:20:51;;;;;;;;;;;20.60;52.40;;;;;;5047894;28;20015;-68
2021/05/19 00:23:17;;;;;;;;;;;20.60;52.50;;;;;;5048301;28;20395;-67
2021/05/19 00:25:44;;;;;;;;;;;20.60;52.50;;;;;;5021457;28;19929;-69
2021/05/19 00:28:10;;;;;;;;;;;20.60;52.40;;;;;;5042843;28;19925;-71
2021/05/19 00:30:36;;;;;;;;;;;20.60;52.40;;;;;;5031173;28;19933;-66
2021/05/19 00:33:03;;;;;;;;;;;20.60;52.30;;;;;;5001557;28;19929;-68
2021/05/19 00:35:29;;;;;;;;;;;20.60;52.30;;;;;;5029542;28;19935;-68
2021/05/19 00:37:55;;;;;;;;;;;20.60;52.20;;;;;;5021154;28;19936;-68
2021/05/19 00:40:21;;;;;;;;;;;20.60;52.40;;;;;;4989807;28;19944;-67
2021/05/19 00:42:47;;;;;;;;;;;20.60;52.20;;;;;;5022646;28;19929;-67
2021/05/19 00:45:14;;;;;;;;;;;20.60;52.20;;;;;;5040885;28;19933;-67
2021/05/19 00:47:40;;;;;;;;;;;20.60;52.20;;;;;;5050719;28;19950;-67
2021/05/19 00:50:07;;;;;;;;;;;20.60;53.00;;;;;;5020472;28;19935;-67
2021/05/19 00:52:33;;;;;;;;;;;20.60;52.30;;;;;;5050580;28;20384;-68
2021/05/19 00:54:59;;;;;;;;;;;20.70;52.40;;;;;;5025899;28;19944;-68
2021/05/19 00:57:25;;;;;;;;;;;20.70;52.30;;;;;;5020244;28;19929;-67
2021/05/19 00:59:52;;;;;;;;;;;20.70;52.30;;;;;;5038631;28;19929;-68
2021/05/19 01:02:18;;;;;;;;;;;20.70;52.30;;;;;;5049116;28;19928;-69
2021/05/19 01:04:44;;;;;;;;;;;20.70;52.00;;;;;;5046736;28;19936;-66
2021/05/19 01:07:19;;;;;;;;;;;20.60;52.10;;;;;;5050976;28;19936;-65
2021/05/19 01:09:45;;;;;;;;;;;20.60;52.10;;;;;;5045973;28;20350;-66
2021/05/19 01:12:11;;;;;;;;;;;20.60;52.20;;;;;;5045930;28;19921;-68
2021/05/19 01:14:38;;;;;;;;;;;20.60;52.30;;;;;;5048113;28;20007;-69
2021/05/19 01:17:05;;;;;;;;;;;20.60;52.30;;;;;;5050851;28;19932;-68
2021/05/19 01:19:31;;;;;;;;;;;20.60;52.10;;;;;;5049112;28;20015;-69
2021/05/19 01:21:57;;;;;;;;;;;20.60;52.20;;;;;;5043813;28;19936;-66
2021/05/19 01:24:23;;;;;;;;;;;20.60;52.10;;;;;;5050496;28;19932;-66
2021/05/19 01:26:50;;;;;;;;;;;20.60;52.10;;;;;;5048156;28;20526;-69
2021/05/19 01:29:16;;;;;;;;;;;20.60;52.10;;;;;;5051902;28;19929;-67
2021/05/19 01:31:45;;;;;;;;;;;20.60;52.10;;;;;;5025688;28;19928;-68
2021/05/19 01:34:11;;;;;;;;;;;20.60;52.10;;;;;;5047877;28;19936;-67
2021/05/19 01:36:37;;;;;;;;;;;20.60;52.10;;;;;;5006877;28;19933;-70
2021/05/19 01:39:03;;;;;;;;;;;20.60;51.90;;;;;;5048204;28;19951;-70
2021/05/19 01:41:30;;;;;;;;;;;20.60;51.90;;;;;;5049931;28;19936;-69
2021/05/19 01:43:56;;;;;;;;;;;20.60;51.90;;;;;;5048693;28;20384;-69
2021/05/19 01:46:22;;;;;;;;;;;20.60;52.20;;;;;;5050421;28;19935;-68
2021/05/19 01:48:50;;;;;;;;;;;20.60;52.20;;;;;;5046075;28;21296;-68
2021/05/19 01:51:16;;;;;;;;;;;20.60;52.20;;;;;;5049835;28;19939;-69
2021/05/19 01:53:42;;;;;;;;;;;20.60;52.00;;;;;;5036095;28;19929;-69
2021/05/19 01:56:08;;;;;;;;;;;20.60;52.10;;;;;;5037487;28;20030;-70
2021/05/19 01:58:35;;;;;;;;;;;20.50;52.00;;;;;;5047224;28;20403;-70
2021/05/19 02:01:01;;;;;;;;;;;20.50;51.80;;;;;;5014705;28;19933;-69
2021/05/19 02:03:27;;;;;;;;;;;20.50;52.00;;;;;;5048438;28;19986;-69
2021/05/19 02:05:53;;;;;;;;;;;20.50;52.10;;;;;;5050487;28;19968;-69
2021/05/19 02:08:19;;;;;;;;;;;20.60;52.00;;;;;;5047219;28;19933;-67
2021/05/19 02:10:45;;;;;;;;;;;20.50;51.90;;;;;;5046338;28;19929;-70
2021/05/19 02:13:11;;;;;;;;;;;20.50;52.00;;;;;;5048800;28;20315;-71
2021/05/19 02:15:38;;;;;;;;;;;20.50;52.80;;;;;;5047354;28;19929;-71
2021/05/19 02:18:04;;;;;;;;;;;20.50;52.10;;;;;;5049182;28;19958;-70
2021/05/19 02:20:30;;;;;;;;;;;20.50;52.00;;;;;;5043768;28;19932;-71
2021/05/19 02:22:56;;;;;;;;;;;20.60;52.20;;;;;;5050450;28;19995;-68
2021/05/19 02:25:22;;;;;;;;;;;20.50;51.90;;;;;;5046105;28;19986;-68
2021/05/19 02:27:49;;;;;;;;;;;20.60;51.90;;;;;;5035102;28;19932;-67
2021/05/19 02:30:15;;;;;;;;;;;20.50;52.10;;;;;;5048175;28;19936;-67
2021/05/19 02:32:42;;;;;;;;;;;20.60;52.10;;;;;;5034243;28;19928;-69
2021/05/19 02:35:09;;;;;;;;;;;20.50;52.00;;;;;;5048104;28;19928;-69
2021/05/19 02:37:35;;;;;;;;;;;20.50;52.10;;;;;;5009066;28;19928;-70
2021/05/19 02:40:01;;;;;;;;;;;20.60;52.20;;;;;;5021084;28;19939;-71
2021/05/19 02:42:27;;;;;;;;;;;20.60;52.20;;;;;;5003012;28;19933;-68
2021/05/19 02:44:53;;;;;;;;;;;20.60;52.10;;;;;;5048755;28;20450;-70
2021/05/19 02:47:19;;;;;;;;;;;20.50;52.00;;;;;;5031880;28;19983;-69
2021/05/19 02:49:46;;;;;;;;;;;20.50;52.00;;;;;;5044582;28;19940;-66
2021/05/19 02:52:12;;;;;;;;;;;20.60;52.10;;;;;;5046942;28;19928;-69
2021/05/19 02:54:38;;;;;;;;;;;20.50;51.90;;;;;;5047194;28;19936;-70
2021/05/19 02:57:05;;;;;;;;;;;20.50;51.70;;;;;;5003555;28;19929;-71
2021/05/19 02:59:31;;;;;;;;;;;20.50;52.10;;;;;;5036390;28;19928;-68
2021/05/19 03:01:57;;;;;;;;;;;20.50;52.20;;;;;;5048753;28;20379;-69
2021/05/19 03:04:23;;;;;;;;;;;20.50;52.00;;;;;;5048767;28;19935;-69
2021/05/19 03:06:50;;;;;;;;;;;20.50;51.70;;;;;;5025852;28;19929;-70
2021/05/19 03:09:16;;;;;;;;;;;20.50;51.70;;;;;;5042834;28;19954;-69
2021/05/19 03:11:42;;;;;;;;;;;20.50;51.60;;;;;;5046884;28;19928;-72
2021/05/19 03:14:08;;;;;;;;;;;20.50;51.40;;;;;;5043836;28;20334;-69
2021/05/19 03:16:35;;;;;;;;;;;20.50;51.10;;;;;;5045117;28;19929;-70
2021/05/19 03:19:01;;;;;;;;;;;20.60;51.10;;;;;;5022677;28;19936;-68
2021/05/19 03:21:27;;;;;;;;;;;20.60;51.00;;;;;;5035801;28;20962;-67
2021/05/19 03:23:54;;;;;;;;;;;20.70;50.90;;;;;;5026248;28;19935;-68
2021/05/19 03:26:20;;;;;;;;;;;20.70;50.80;;;;;;5040213;28;20303;-69
2021/05/19 03:28:46;;;;;;;;;;;20.70;50.70;;;;;;5048579;28;19929;-67
2021/05/19 03:31:12;;;;;;;;;;;20.70;50.60;;;;;;5050555;28;19932;-66
2021/05/19 03:33:38;;;;;;;;;;;20.80;50.50;;;;;;5026072;28;19999;-67
2021/05/19 03:36:05;;;;;;;;;;;20.80;50.40;;;;;;5034233;28;20181;-69
2021/05/19 03:38:31;;;;;;;;;;;20.80;50.40;;;;;;5030718;28;19928;-68
2021/05/19 03:40:58;;;;;;;;;;;20.80;50.40;;;;;;5050594;28;19928;-67
2021/05/19 03:43:24;;;;;;;;;;;20.80;50.30;;;;;;5052029;28;20486;-66
2021/05/19 03:45:50;;;;;;;;;;;20.80;50.30;;;;;;5051130;28;20308;-67
2021/05/19 03:48:16;;;;;;;;;;;20.80;50.30;;;;;;5051011;28;19928;-68
2021/05/19 03:50:43;;;;;;;;;;;20.70;50.50;;;;;;5051974;28;20019;-67
2021/05/19 03:53:09;;;;;;;;;;;20.80;50.50;;;;;;5052337;28;20051;-68
2021/05/19 03:55:36;;;;;;;;;;;20.80;50.40;;;;;;5040758;28;20691;-67
2021/05/19 03:58:02;;;;;;;;;;;20.80;50.40;;;;;;5049702;28;20423;-68
2021/05/19 04:00:34;;;;;;;;;;;20.80;50.30;;;;;;5045344;28;19928;-69
2021/05/19 04:03:00;;;;;;;;;;;20.80;50.40;;;;;;5016869;28;19933;-68
2021/05/19 04:05:26;;;;;;;;;;;20.80;50.40;;;;;;5049621;28;19932;-68
2021/05/19 04:07:52;;;;;;;;;;;20.80;50.50;;;;;;5049505;28;19990;-66
2021/05/19 04:10:18;;;;;;;;;;;20.80;50.50;;;;;;5051687;28;20548;-68
2021/05/19 04:12:47;;;;;;;;;;;20.80;50.50;;;;;;5046259;28;20419;-67
2021/05/19 04:15:14;;;;;;;;;;;20.70;50.50;;;;;;5050211;28;19928;-66
2021/05/19 04:17:40;;;;;;;;;;;20.70;50.50;;;;;;5047101;28;19935;-66
2021/05/19 04:20:06;;;;;;;;;;;20.70;50.30;;;;;;5050532;28;19928;-67
2021/05/19 04:22:32;;;;;;;;;;;20.70;50.30;;;;;;5049438;28;19933;-67
2021/05/19 04:24:58;;;;;;;;;;;20.70;50.30;;;;;;5049929;28;20381;-68
2021/05/19 04:27:24;;;;;;;;;;;20.70;50.10;;;;;;5048141;28;19929;-69
2021/05/19 04:29:50;;;;;;;;;;;20.80;50.30;;;;;;5052258;28;19944;-69
2021/05/19 04:32:17;;;;;;;;;;;20.80;50.40;;;;;;5046081;28;19928;-69
2021/05/19 04:34:43;;;;;;;;;;;20.80;50.40;;;;;;5026836;28;19929;-70
2021/05/19 04:37:09;;;;;;;;;;;20.80;50.30;;;;;;5022470;28;19924;-68
2021/05/19 04:39:35;;;;;;;;;;;20.80;50.10;;;;;;5049582;28;19935;-67
2021/05/19 04:42:01;;;;;;;;;;;20.80;49.90;;;;;;5033410;28;19925;-68
2021/05/19 04:44:27;;;;;;;;;;;20.90;49.90;;;;;;5041922;28;19959;-69
2021/05/19 04:46:53;;;;;;;;;;;20.90;50.00;;;;;;5051002;28;19932;-69
2021/05/19 04:49:20;;;;;;;;;;;20.90;50.00;;;;;;5038139;28;20006;-68
2021/05/19 04:51:46;;;;;;;;;;;20.90;50.10;;;;;;5049566;28;19944;-67
2021/05/19 04:54:12;;;;;;;;;;;20.90;50.20;;;;;;5040510;28;20416;-67
2021/05/19 04:56:38;;;;;;;;;;;20.90;50.30;;;;;;5048055;28;20407;-69
2021/05/19 04:59:05;;;;;;;;;;;20.80;50.30;;;;;;5030860;28;19932;-70
2021/05/19 05:01:31;;;;;;;;;;;20.80;50.40;;;;;;5040798;28;19928;-68
2021/05/19 05:03:57;;;;;;;;;;;20.80;50.50;;;;;;5045061;28;19936;-68
2021/05/19 05:06:24;;;;;;;;;;;20.80;50.40;;;;;;5027712;28;19955;-69
2021/05/19 05:08:50;;;;;;;;;;;20.70;50.40;;;;;;5047291;28;19935;-67
2021/05/19 05:11:16;;;;;;;;;;;20.70;50.70;;;;;;5048337;28;19936;-67
2021/05/19 05:13:42;;;;;;;;;;;20.70;50.70;;;;;;5047405;28;19929;-69
2021/05/19 05:16:08;;;;;;;;;;;20.80;50.70;;;;;;5050647;28;20296;-69
2021/05/19 05:18:34;;;;;;;;;;;20.70;50.60;;;;;;5046820;28;19928;-69
2021/05/19 05:21:00;;;;;;;;;;;20.70;50.60;;;;;;5046986;28;20347;-67
2021/05/19 05:23:28;;;;;;;;;;;20.70;50.40;;;;;;5050638;28;19929;-68
2021/05/19 05:25:54;;;;;;;;;;;20.70;50.50;;;;;;5047624;28;20026;-70
2021/05/19 05:28:20;;;;;;;;;;;20.70;50.50;;;;;;5035780;28;20466;-67
2021/05/19 05:30:46;;;;;;;;;;;20.70;50.40;;;;;;5027239;28;19991;-68
2021/05/19 05:33:12;;;;;;;;;;;20.70;50.40;;;;;;5034539;28;19924;-69
2021/05/19 05:35:38;;;;;;;;;;;20.70;50.50;;;;;;5019214;28;20723;-68
2021/05/19 05:38:04;;;;;;;;;;;20.70;50.50;;;;;;5010456;28;19939;-68
2021/05/19 05:40:31;;;;;;;;;;;20.70;50.50;;;;;;5016460;28;19929;-68
2021/05/19 05:42:57;;;;;;;;;;;20.70;50.70;;;;;;5033403;28;19959;-68
2021/05/19 05:45:23;;;;;;;;;;;20.70;50.90;;;;;;5045651;28;20041;-67
2021/05/19 05:47:49;;;;;;;;;;;20.70;50.90;;;;;;5035941;28;20814;-68
2021/05/19 05:50:15;;;;;;;;;;;20.60;50.70;;;;;;5020189;28;19976;-66
2021/05/19 05:52:41;;;;;;;;;;;20.60;50.80;;;;;;5044297;28;19932;-67
2021/05/19 05:55:08;;;;;;;;;;;20.60;50.80;;;;;;5021104;28;19936;-70
2021/05/19 05:57:35;;;;;;;;;;;20.60;50.70;;;;;;5029804;28;19933;-70
2021/05/19 06:00:01;;;;;;;;;;;20.60;50.70;;;;;;5043954;28;19967;-69
2021/05/19 06:02:27;;;;;;;;;;;20.60;50.70;;;;;;5021289;28;19928;-71
2021/05/19 06:04:53;;;;;;;;;;;20.60;50.80;;;;;;5016263;28;19932;-69
2021/05/19 06:07:19;;;;;;;;;;;20.60;50.60;;;;;;5040406;28;19933;-69
2021/05/19 06:09:50;;;;;;;;;;;20.60;50.50;;;;;;5034818;28;19928;-68
2021/05/19 06:12:16;;;;;;;;;;;20.60;50.60;;;;;;5034662;28;20966;-69
2021/05/19 06:14:43;;;;;;;;;;;20.60;50.60;;;;;;5045510;28;19955;-69
2021/05/19 06:17:11;;;;;;;;;;;20.60;50.90;;;;;;5045659;28;19990;-68
2021/05/19 06:19:37;;;;;;;;;;;20.60;50.80;;;;;;5018464;28;20044;-68
2021/05/19 06:22:03;;;;;;;;;;;20.60;50.80;;;;;;5036225;28;20594;-68
2021/05/19 06:24:29;;;;;;;;;;;20.60;51.00;;;;;;5039234;28;19928;-69
2021/05/19 06:26:55;;;;;;;;;;;20.60;51.00;;;;;;5031489;28;20412;-68
2021/05/19 06:29:21;;;;;;;;;;;20.60;51.10;;;;;;5040312;28;19933;-68
2021/05/19 06:31:48;;;;;;;;;;;20.60;51.10;;;;;;5028890;28;19984;-68
2021/05/19 06:34:14;;;;;;;;;;;20.60;51.20;;;;;;5025834;28;19924;-68
2021/05/19 06:36:45;;;;;;;;;;;20.60;51.10;;;;;;4995718;28;19975;-68
2021/05/19 06:39:11;;;;;;;;;;;20.60;51.10;;;;;;5020015;28;19925;-69
2021/05/19 06:41:37;;;;;;;;;;;20.60;51.10;;;;;;4976105;28;19976;-67
2021/05/19 06:44:03;;;;;;;;;;;20.60;51.30;;;;;;5034748;28;19934;-68
2021/05/19 06:46:30;;;;;;;;;;;20.60;51.20;;;;;;5016767;28;19959;-67
2021/05/19 06:49:03;;;;;;;;;;;20.60;51.20;;;;;;5013748;28;20027;-68
2021/05/19 06:51:29;;;;;;;;;;;20.60;51.30;;;;;;5012741;28;20692;-68
2021/05/19 06:53:55;;;;;;;;;;;20.60;51.30;;;;;;5024878;28;20016;-69
2021/05/19 06:56:21;;;;;;;;;;;20.60;51.20;;;;;;5015931;28;19940;-70
2021/05/19 06:58:47;;;;;;;;;;;20.70;51.30;;;;;;5024514;28;20027;-68
2021/05/19 07:01:13;;;;;;;;;;;20.70;51.40;;;;;;5022749;28;20858;-69
2021/05/19 07:03:39;;;;;;;;;;;20.70;51.30;;;;;;5022603;28;19933;-69
2021/05/19 07:06:06;;;;;;;;;;;20.70;51.30;;;;;;5041870;28;20372;-68
2021/05/19 07:08:32;;;;;;;;;;;20.70;51.20;;;;;;5036443;28;19935;-68
2021/05/19 07:10:58;;;;;;;;;;;20.70;51.20;;;;;;5036808;28;19981;-67
2021/05/19 07:13:28;;;;;;;;;;;20.70;51.20;;;;;;5024852;28;19929;-68
2021/05/19 07:15:54;;;;;;;;;;;20.70;51.20;;;;;;5041785;28;20019;-68
2021/05/19 07:18:20;;;;;;;;;;;20.70;51.30;;;;;;5046022;28;19928;-67
2021/05/19 07:20:46;;;;;;;;;;;20.70;51.50;;;;;;5038682;28;19933;-69
2021/05/19 07:23:13;;;;;;;;;;;20.60;51.40;;;;;;5043241;28;21049;-68
2021/05/19 07:25:39;;;;;;;;;;;20.60;51.50;;;;;;5039539;28;20003;-68
2021/05/19 07:28:07;;;;;;;;;;;20.60;51.50;;;;;;5044845;28;19935;-70
2021/05/19 07:30:33;;;;;;;;;;;20.60;51.50;;;;;;5042629;28;20015;-69
2021/05/19 07:32:59;;;;;;;;;;;20.60;51.50;;;;;;5030258;28;19963;-69
2021/05/19 07:35:26;;;;;;;;;;;20.60;51.50;;;;;;5004048;28;19928;-70
2021/05/19 07:37:52;;;;;;;;;;;20.50;51.50;;;;;;5023100;28;19941;-65
2021/05/19 07:40:20;;;;;;;;;;;20.50;51.60;;;;;;5028775;28;20031;-72
2021/05/19 07:42:46;;;;;;;;;;;20.50;51.60;;;;;;5037357;28;19940;-67
2021/05/19 07:45:13;;;;;;;;;;;20.60;51.60;;;;;;5045274;28;19963;-68
2021/05/19 07:47:39;;;;;;;;;;;20.60;51.60;;;;;;5040419;28;19932;-69
2021/05/19 07:50:05;;;;;;;;;;;20.60;51.50;;;;;;5039567;28;20418;-69
2021/05/19 07:52:31;;;;;;;;;;;20.60;51.40;;;;;;5044391;28;20544;-68
2021/05/19 07:54:57;;;;;;;;;;;20.60;51.30;;;;;;5044705;28;19929;-73
2021/05/19 07:57:37;;;;;;;;;;;20.60;51.30;;;;;;5034894;28;19968;-69
2021/05/19 08:00:07;;;;;;;;;;;20.60;51.30;;;;;;5041310;28;20418;-68
2021/05/19 08:02:33;;;;;;;;;;;20.60;51.40;;;;;;5040614;28;19929;-70
2021/05/19 08:04:59;;;;;;;;;;;20.60;51.30;;;;;;5044851;28;19932;-69
2021/05/19 08:07:25;;;;;;;;;;;20.60;51.30;;;;;;5028421;28;19936;-68
2021/05/19 08:09:51;;;;;;;;;;;20.60;51.20;;;;;;5042580;28;19936;-70
2021/05/19 08:12:17;;;;;;;;;;;20.60;51.10;;;;;;5010598;28;19928;-70
2021/05/19 08:14:45;;;;;;;;;;;20.60;51.10;;;;;;5036177;28;20531;-69
2021/05/19 08:17:12;;;;;;;;;;;20.60;51.00;;;;;;5026155;28;19963;-69
2021/05/19 08:19:38;;;;;;;;;;;20.60;50.90;;;;;;5047104;28;20590;-68
2021/05/19 08:22:06;;;;;;;;;;;20.60;50.80;;;;;;5020714;28;19929;-68
2021/05/19 08:24:32;;;;;;;;;;;20.60;50.80;;;;;;5036952;28;20444;-68
2021/05/19 08:26:58;;;;;;;;;;;20.60;50.80;;;;;;5035305;28;19935;-68
2021/05/19 08:29:24;;;;;;;;;;;20.70;50.80;;;;;;5044648;28;20420;-69
2021/05/19 08:31:51;;;;;;;;;;;20.70;50.70;;;;;;5049168;28;19936;-67
2021/05/19 08:34:17;;;;;;;;;;;20.70;50.50;;;;;;5044788;28;19956;-71
2021/05/19 08:36:43;;;;;;;;;;;20.70;50.40;;;;;;4996920;28;19964;-68
2021/05/19 08:39:09;;;;;;;;;;;20.80;50.40;;;;;;5043276;28;19928;-70
2021/05/19 08:41:35;;;;;;;;;;;20.80;50.40;;;;;;5048588;28;19935;-67
2021/05/19 08:44:01;;;;;;;;;;;20.80;50.30;;;;;;5034495;28;19936;-67
2021/05/19 08:46:27;;;;;;;;;;;20.80;50.20;;;;;;5024148;28;19932;-69
2021/05/19 08:49:01;;;;;;;;;;;20.80;50.30;;;;;;5030305;28;19953;-69
2021/05/19 08:51:27;;;;;;;;;;;20.80;50.30;;;;;;5044582;28;19952;-68
2021/05/19 08:53:53;;;;;;;;;;;20.80;50.30;;;;;;5031867;28;19932;-67
2021/05/19 08:56:19;;;;;;;;;;;20.80;50.30;;;;;;5025900;28;19948;-69
2021/05/19 08:58:45;;;;;;;;;;;20.80;50.30;;;;;;5034298;28;19932;-69
2021/05/19 09:01:18;;;;;;;;;;;20.70;50.20;;;;;;5038534;28;19929;-74
2021/05/19 09:03:44;;;;;;;;;;;20.70;50.20;;;;;;5019955;28;19936;-67
2021/05/19 09:06:19;;;;;;;;;;;20.80;50.40;;;;;;5027554;28;19929;-69
2021/05/19 09:08:45;;;;;;;;;;;20.80;50.30;;;;;;5034013;28;20354;-70
2021/05/19 09:11:13;;;;;;;;;;;20.80;50.20;;;;;;5035616;28;19929;-69
2021/05/19 09:13:41;;;;;;;;;;;20.80;50.20;;;;;;5017722;28;19971;-68
2021/05/19 09:16:09;;;;;;;;;;;20.80;50.30;;;;;;5019227;28;19983;-68
2021/05/19 09:18:50;;;;;;;;;;;20.80;50.20;;;;;;5034388;28;20013;-69
2021/05/19 09:21:32;;;;;;;;;;;20.80;50.20;;;;;;5013061;28;20361;-69
2021/05/19 09:23:59;;;;;;;;;;;20.80;50.20;;;;;;4981796;28;19932;-69
2021/05/19 09:26:25;;;;;;;;;;;20.80;50.30;;;;;;5013786;28;19947;-72
2021/05/19 09:28:52;;;;;;;;;;;20.80;50.40;;;;;;5032357;28;19940;-70
2021/05/19 09:31:21;;;;;;;;;;;20.80;50.30;;;;;;5042650;28;19928;-72
2021/05/19 09:33:48;;;;;;;;;;;20.70;50.30;;;;;;5047539;28;20364;-68
2021/05/19 09:36:15;;;;;;;;;;;20.70;50.40;;;;;;4998581;28;19932;-71
2021/05/19 09:38:42;;;;;;;;;;;20.70;50.40;;;;;;5026742;28;20458;-69
2021/05/19 09:41:17;;;;;;;;;;;20.70;50.40;;;;;;5040362;28;19944;-69
2021/05/19 09:43:43;;;;;;;;;;;20.70;50.50;;;;;;5031416;28;19965;-68
2021/05/19 09:46:17;;;;;;;;;;;20.80;50.50;;;;;;5043394;28;19925;-67
2021/05/19 09:48:43;;;;;;;;;;;20.80;50.40;;;;;;5042860;28;20368;-68
2021/05/19 09:51:10;;;;;;;;;;;20.80;50.40;;;;;;5031012;28;19929;-69
2021/05/19 09:53:36;;;;;;;;;;;20.80;50.40;;;;;;5045538;28;19971;-68
2021/05/19 09:56:06;;;;;;;;;;;20.80;50.30;;;;;;5042548;28;20077;-69
2021/05/19 09:58:32;;;;;;;;;;;20.80;50.30;;;;;;5033029;28;19988;-68
2021/05/19 10:00:58;;;;;;;;;;;20.80;50.30;;;;;;5022256;28;20539;-68
2021/05/19 10:03:24;;;;;;;;;;;20.80;50.40;;;;;;5036158;28;19928;-69
2021/05/19 10:05:55;;;;;;;;;;;20.80;50.40;;;;;;5035047;28;19929;-68
2021/05/19 10:08:21;;;;;;;;;;;20.80;50.30;;;;;;5030646;28;19935;-69
2021/05/19 10:10:47;;;;;;;;;;;20.80;51.10;;;;;;5041682;28;19932;-68
2021/05/19 10:13:14;;;;;;;;;;;20.70;50.20;;;;;;5007832;28;19936;-69
2021/05/19 10:15:40;;;;;;;;;;;20.70;50.30;;;;;;5035662;28;19934;-69
2021/05/19 10:18:07;;;;;;;;;;;20.70;50.30;;;;;;5029765;28;19933;-68
2021/05/19 10:20:34;;;;;;;;;;;20.70;50.20;;;;;;5040726;28;20070;-70
2021/05/19 10:23:00;;;;;;;;;;;20.70;50.30;;;;;;5039927;28;20412;-66
2021/05/19 10:25:32;;;;;;;;;;;20.70;50.30;;;;;;5031884;28;19928;-67
2021/05/19 10:28:00;;;;;;;;;;;20.70;50.40;;;;;;5010597;28;19972;-67
2021/05/19 10:30:47;;;;;;;;;;;20.70;50.40;;;;;;5028922;28;19977;-68
2021/05/19 10:33:32;;;;;;;;;;;20.70;50.40;;;;;;5023634;28;19935;-68
2021/05/19 10:35:59;;;;;;;;;;;20.70;50.50;;;;;;5026261;28;19928;-69
2021/05/19 10:38:27;;;;;;;;;;;20.70;50.30;;;;;;5000982;28;19929;-70
2021/05/19 10:40:53;;;;;;;;;;;20.70;50.30;;;;;;5038632;28;20035;-67
2021/05/19 10:43:20;;;;;;;;;;;20.80;50.30;;;;;;5038098;28;21004;-68
2021/05/19 10:45:49;;;;;;;;;;;20.80;50.20;;;;;;5038443;28;19928;-69
2021/05/19 10:48:33;;;;;;;;;;;20.70;50.20;;;;;;5044498;28;20003;-66
2021/05/19 10:51:14;;;;;;;;;;;20.70;50.30;;;;;;5006394;28;19950;-68
2021/05/19 10:59:19;;;;;;;;;;;20.70;50.30;;;;;;5023741;28;20196;-68
2021/05/19 11:01:52;;;;;;;;;;;20.70;50.40;;;;;;5021788;28;19974;-68
2021/05/19 11:04:18;;;;;;;;;;;20.70;50.50;;;;;;5031887;28;19952;-67
2021/05/19 11:07:03;;;;;;;;;;;20.60;50.60;;;;;;5013426;28;19929;-68
2021/05/19 11:09:31;;;;;;;;;;;20.60;50.60;;;;;;5041515;28;20027;-67
2021/05/19 11:12:12;;;;;;;;;;;20.60;50.60;;;;;;5030301;28;20388;-68
2021/05/19 11:14:45;;;;;;;;;;;20.60;50.60;;;;;;5002751;28;20876;-70
2021/05/19 11:17:18;;;;;;;;;;;20.60;50.70;;;;;;5043369;28;20447;-69
2021/05/19 11:19:44;;;;;;;;;;;20.70;50.50;;;;;;5042984;28;19928;-69
2021/05/19 11:22:12;;;;;;;;;;;20.70;50.50;;;;;;5044246;28;19929;-69
2021/05/19 11:24:48;;;;;;;;;;;20.70;50.50;;;;;;5028854;28;19936;-69
2021/05/19 11:27:17;;;;;;;;;;;20.70;50.40;;;;;;5042668;28;20380;-70
2021/05/19 11:29:46;;;;;;;;;;;20.70;50.30;;;;;;5037978;28;19933;-69
2021/05/19 11:32:14;;;;;;;;;;;20.70;50.30;;;;;;5035721;28;19999;-69
2021/05/19 11:34:40;;;;;;;;;;;20.70;50.30;;;;;;5020753;28;20319;-67
2021/05/19 11:37:06;;;;;;;;;;;20.70;50.50;;;;;;4982746;28;20345;-66
2021/05/19 11:39:34;;;;;;;;;;;20.70;50.40;;;;;;5017270;28;19933;-68
2021/05/19 11:42:11;;;;;;;;;;;20.70;50.50;;;;;;5030343;28;19928;-73
2021/05/19 11:44:37;;;;;;;;;;;20.80;50.60;;;;;;5017920;28;19929;-67
2021/05/19 11:47:03;;;;;;;;;;;20.80;51.40;;;;;;5026801;28;19958;-68
2021/05/19 11:49:29;;;;;;;;;;;20.80;50.50;;;;;;5030082;28;19929;-69
2021/05/19 11:51:55;;;;;;;;;;;20.80;50.60;;;;;;5019482;28;19928;-67
2021/05/19 11:54:22;;;;;;;;;;;20.80;50.60;;;;;;5026185;28;20000;-68
2021/05/19 11:56:48;;;;;;;;;;;20.70;50.50;;;;;;5034399;28;19929;-68
2021/05/19 11:59:15;;;;;;;;;;;20.70;50.50;;;;;;5037808;28;19985;-67
2021/05/19 12:01:57;;;;;;;;;;;20.70;50.70;;;;;;5025850;28;19929;-70
2021/05/19 12:04:23;;;;;;;;;;;20.60;50.80;;;;;;5011625;28;19929;-69
2021/05/19 12:06:50;;;;;;;;;;;20.60;50.80;;;;;;5039522;28;19928;-71
2021/05/19 12:09:17;;;;;;;;;;;20.60;51.00;;;;;;5035425;28;19978;-68
2021/05/19 12:11:43;;;;;;;;;;;20.60;51.00;;;;;;5016274;28;20052;-68
2021/05/19 12:14:10;;;;;;;;;;;20.60;51.00;;;;;;4990022;28;19931;-68
2021/05/19 12:16:38;;;;;;;;;;;20.60;51.20;;;;;;5032929;28;19936;-69
2021/05/19 12:19:07;;;;;;;;;;;20.60;51.00;;;;;;5026404;28;19929;-72
2021/05/19 12:21:33;;;;;;;;;;;20.50;51.00;;;;;;5041195;28;19932;-73
2021/05/19 12:24:00;;;;;;;;;;;20.60;51.10;;;;;;5036342;28;19929;-69
2021/05/19 12:26:26;;;;;;;;;;;20.60;51.20;;;;;;5048260;28;20006;-68
2021/05/19 12:28:52;;;;;;;;;;;20.60;51.20;;;;;;5049195;28;20015;-69
2021/05/19 12:31:24;;;;;;;;;;;20.60;51.30;;;;;;5045625;28;19935;-69
2021/05/19 12:33:51;;;;;;;;;;;20.70;51.20;;;;;;5047361;28;20443;-69
2021/05/19 12:36:27;;;;;;;;;;;20.70;51.10;;;;;;5035124;28;19928;-68
2021/05/19 12:38:56;;;;;;;;;;;20.70;51.20;;;;;;5018473;28;19951;-68
2021/05/19 12:41:38;;;;;;;;;;;20.80;51.20;;;;;;4976070;28;19929;-69
2021/05/19 12:44:05;;;;;;;;;;;20.80;51.10;;;;;;5011497;28;19933;-68
2021/05/19 12:46:31;;;;;;;;;;;20.80;51.20;;;;;;5036494;28;19935;-68
2021/05/19 12:49:05;;;;;;;;;;;20.80;51.10;;;;;;5010190;28;20385;-70
2021/05/19 12:51:46;;;;;;;;;;;20.80;51.10;;;;;;5046159;28;20023;-68
2021/05/19 12:54:12;;;;;;;;;;;20.80;51.20;;;;;;5022335;28;19928;-69
2021/05/19 12:56:38;;;;;;;;;;;20.80;51.10;;;;;;5030232;28;20406;-68
2021/05/19 12:59:06;;;;;;;;;;;20.80;50.90;;;;;;5047408;28;19928;-70
2021/05/19 13:01:41;;;;;;;;;;;20.80;51.10;;;;;;5048758;28;19935;-69
2021/05/19 13:04:08;;;;;;;;;;;20.70;51.10;;;;;;5047872;28;19932;-71
2021/05/19 13:06:34;;;;;;;;;;;20.70;51.00;;;;;;5021195;28;20436;-71
2021/05/19 13:09:01;;;;;;;;;;;20.70;50.90;;;;;;5030692;28;19975;-73
2021/05/19 13:11:29;;;;;;;;;;;20.70;51.00;;;;;;5025216;28;19978;-67
2021/05/19 13:13:55;;;;;;;;;;;20.70;51.10;;;;;;5038811;28;19958;-69
2021/05/19 13:16:22;;;;;;;;;;;20.70;51.10;;;;;;5048419;28;19928;-67
2021/05/19 13:18:50;;;;;;;;;;;20.70;51.10;;;;;;5043808;28;20324;-67
2021/05/19 13:21:20;;;;;;;;;;;20.70;51.10;;;;;;5031065;28;19976;-67
2021/05/19 13:23:46;;;;;;;;;;;20.70;51.20;;;;;;5017193;28;19932;-68
2021/05/19 13:26:13;;;;;;;;;;;20.70;51.00;;;;;;5005473;28;19929;-68
2021/05/19 13:28:39;;;;;;;;;;;20.70;50.90;;;;;;5038386;28;19974;-70
2021/05/19 13:31:05;;;;;;;;;;;20.70;51.00;;;;;;5035820;28;19929;-67
2021/05/19 13:33:38;;;;;;;;;;;20.80;51.10;;;;;;5028193;28;19935;-67
2021/05/19 13:36:26;;;;;;;;;;;20.80;51.00;;;;;;5045939;28;19956;-67
2021/05/19 13:38:53;;;;;;;;;;;20.80;51.10;;;;;;5019497;28;19960;-70
2021/05/19 13:41:19;;;;;;;;;;;20.80;51.00;;;;;;5017639;28;19940;-68
2021/05/19 13:43:45;;;;;;;;;;;20.80;51.00;;;;;;5012058;28;20408;-68
2021/05/19 13:46:12;;;;;;;;;;;20.80;50.80;;;;;;5044820;28;19935;-68
2021/05/19 13:48:38;;;;;;;;;;;20.70;50.80;;;;;;5033452;28;19963;-67
2021/05/19 13:51:04;;;;;;;;;;;20.70;50.90;;;;;;5032665;28;19929;-68
2021/05/19 13:53:30;;;;;;;;;;;20.70;51.20;;;;;;5026229;28;19951;-68
2021/05/19 13:56:02;;;;;;;;;;;20.70;51.10;;;;;;5045529;28;19929;-69
2021/05/19 13:58:31;;;;;;;;;;;20.60;51.10;;;;;;5042678;28;19933;-70
2021/05/19 14:00:57;;;;;;;;;;;20.60;51.30;;;;;;5032852;28;19963;-66
2021/05/19 14:03:26;;;;;;;;;;;20.60;51.40;;;;;;5047926;28;19928;-67
2021/05/19 14:05:52;;;;;;;;;;;20.60;51.40;;;;;;5033084;28;19933;-67
2021/05/19 14:08:18;;;;;;;;;;;20.60;51.30;;;;;;5044503;28;19978;-69
2021/05/19 14:10:51;;;;;;;;;;;20.60;51.20;;;;;;5031484;28;19928;-68
2021/05/19 14:13:17;;;;;;;;;;;20.60;51.20;;;;;;5043061;28;20335;-69
2021/05/19 14:15:49;;;;;;;;;;;20.60;51.20;;;;;;5041738;28;20034;-66
2021/05/19 14:18:31;;;;;;;;;;;20.60;51.30;;;;;;5036507;28;19939;-69
2021/05/19 14:21:33;;;;;;;;;;;20.60;52.20;;;;;;5035101;28;20435;-68
2021/05/19 14:26:56;;;;;;;;;;;20.60;51.30;;;;;;5045371;28;19927;-69